Time;durP1;ratioP1;P1;durP2;ratioP2;P2;SDS_P1;SDS_P2;PMS_P1;PMS_P2;Temp;Humidity;BMP_temperature;BMP_pressure;BME280_temperature;BME280_humidity;BME280_pressure;Samples;Min_cycle;Max_cycle;Signal;HPM_P1;HPM_P2
2024/02/23 00:00:11;;;;;;;6.70;1.60;;;8.30;99.90;;;;;;5093032;28;20046;-78
2024/02/23 00:02:37;;;;;;;3.78;1.25;;;8.30;99.90;;;;;;5090563;28;20514;-78
2024/02/23 00:05:04;;;;;;;3.50;1.02;;;8.40;99.90;;;;;;5100069;28;20023;-78
2024/02/23 00:07:29;;;;;;;4.93;0.95;;;8.40;99.90;;;;;;5097578;28;20030;-78
2024/02/23 00:09:55;;;;;;;9.07;1.80;;;8.40;99.90;;;;;;5098544;28;20406;-77
2024/02/23 00:12:21;;;;;;;3.85;1.13;;;8.40;99.90;;;;;;5095072;28;20031;-77
2024/02/23 00:14:46;;;;;;;9.70;1.38;;;8.40;99.90;;;;;;5103278;28;20035;-79
2024/02/23 00:17:12;;;;;;;5.53;1.42;;;8.50;99.90;;;;;;5096347;28;20016;-78
2024/02/23 00:19:38;;;;;;;6.57;1.73;;;8.40;99.80;;;;;;5110866;28;20531;-78
2024/02/23 00:22:06;;;;;;;3.38;1.60;;;8.40;99.90;;;;;;5094639;28;20044;-78
2024/02/23 00:24:31;;;;;;;7.60;1.33;;;8.40;99.90;;;;;;5099820;28;20024;-78
2024/02/23 00:26:57;;;;;;;6.45;1.40;;;8.30;99.80;;;;;;5093837;28;20027;-77
2024/02/23 00:29:23;;;;;;;4.75;1.15;;;8.20;99.90;;;;;;5100399;28;20478;-78
2024/02/23 00:31:49;;;;;;;7.95;1.17;;;8.30;99.90;;;;;;5094810;28;20028;-78
2024/02/23 00:34:14;;;;;;;4.72;1.35;;;8.20;99.80;;;;;;5092117;28;20119;-78
2024/02/23 00:36:41;;;;;;;8.52;1.70;;;8.20;99.60;;;;;;5096172;28;20077;-78
2024/02/23 00:39:07;;;;;;;3.03;1.05;;;8.20;99.70;;;;;;5097573;28;20801;-78
2024/02/23 00:41:34;;;;;;;5.55;1.55;;;8.30;99.90;;;;;;5096265;28;20075;-78
2024/02/23 00:43:59;;;;;;;11.60;1.90;;;8.30;99.90;;;;;;5093859;28;20470;-78
2024/02/23 00:46:25;;;;;;;1.67;0.65;;;8.40;99.80;;;;;;5095373;28;20110;-78
2024/02/23 00:48:51;;;;;;;6.95;1.55;;;8.50;99.80;;;;;;5093788;28;20036;-78
2024/02/23 00:51:16;;;;;;;4.10;1.20;;;8.40;99.60;;;;;;5092921;28;20082;-78
2024/02/23 00:53:42;;;;;;;5.60;1.70;;;8.50;99.50;;;;;;5102692;28;20081;-78
2024/02/23 00:56:09;;;;;;;7.03;1.17;;;8.50;99.30;;;;;;5089613;28;20087;-77
2024/02/23 00:58:34;;;;;;;4.00;1.10;;;8.50;99.50;;;;;;5091120;28;20051;-78
2024/02/23 01:01:03;;;;;;;2.92;1.25;;;8.40;99.50;;;;;;5092315;28;20057;-78
2024/02/23 01:03:30;;;;;;;8.45;2.00;;;8.40;99.40;;;;;;5108322;28;20043;-78
2024/02/23 01:05:56;;;;;;;6.57;1.85;;;8.30;99.60;;;;;;5106526;28;20120;-78
2024/02/23 01:08:21;;;;;;;4.32;1.38;;;8.30;99.60;;;;;;5097026;28;20032;-78
2024/02/23 01:10:47;;;;;;;8.60;2.13;;;8.30;99.70;;;;;;5107230;28;20039;-78
2024/02/23 01:13:13;;;;;;;10.90;1.80;;;8.20;99.60;;;;;;5093901;28;20024;-78
2024/02/23 01:15:39;;;;;;;8.18;1.90;;;8.20;99.70;;;;;;5097196;28;20038;-78
2024/02/23 01:18:08;;;;;;;4.85;1.20;;;8.20;99.50;;;;;;5105461;28;20027;-78
2024/02/23 01:20:34;;;;;;;4.25;1.17;;;8.10;99.40;;;;;;5100394;28;20012;-78
2024/02/23 01:23:00;;;;;;;5.32;1.45;;;8.10;99.40;;;;;;5092212;28;20044;-77
2024/02/23 01:25:26;;;;;;;3.97;1.45;;;8.00;99.30;;;;;;5109637;28;20038;-77
2024/02/23 01:27:52;;;;;;;5.25;1.20;;;8.00;99.30;;;;;;5102215;28;20046;-78
2024/02/23 01:30:18;;;;;;;7.03;1.58;;;8.00;99.30;;;;;;5099406;28;20057;-78
2024/02/23 01:32:45;;;;;;;9.88;2.15;;;8.00;99.30;;;;;;5105934;28;21420;-78
2024/02/23 01:35:11;;;;;;;4.63;1.70;;;8.00;99.20;;;;;;5088546;28;20068;-78
2024/02/23 01:37:37;;;;;;;5.10;1.48;;;8.00;99.30;;;;;;5084806;28;20066;-78
2024/02/23 01:40:03;;;;;;;10.52;2.10;;;8.00;99.30;;;;;;5098705;28;20036;-77
2024/02/23 01:42:29;;;;;;;6.95;1.77;;;8.00;99.20;;;;;;5087536;28;20097;-78
2024/02/23 01:44:58;;;;;;;10.07;1.92;;;8.00;99.30;;;;;;5089881;28;20024;-78
2024/02/23 01:47:24;;;;;;;8.52;1.88;;;8.10;99.40;;;;;;5090554;28;20077;-78
2024/02/23 01:49:51;;;;;;;13.27;2.35;;;8.10;99.30;;;;;;5099571;28;20051;-77
2024/02/23 01:52:17;;;;;;;7.72;1.88;;;8.10;99.30;;;;;;5092149;28;20052;-78
2024/02/23 01:54:43;;;;;;;3.97;1.48;;;8.10;99.30;;;;;;5103605;28;20114;-78
2024/02/23 01:57:10;;;;;;;8.60;2.10;;;8.10;99.20;;;;;;5098261;28;20039;-78
2024/02/23 01:59:38;;;;;;;7.72;1.45;;;8.20;99.30;;;;;;5091692;28;20038;-78
2024/02/23 02:02:04;;;;;;;13.52;2.13;;;8.20;99.40;;;;;;5095707;28;20032;-78
2024/02/23 02:04:31;;;;;;;8.52;2.13;;;8.20;99.20;;;;;;5105285;27;20426;-78
2024/02/23 02:06:59;;;;;;;7.25;1.77;;;8.20;99.30;;;;;;5121311;27;20426;-78
2024/02/23 02:09:25;;;;;;;10.43;1.98;;;8.20;99.30;;;;;;5098900;27;20061;-78
2024/02/23 02:11:51;;;;;;;8.13;1.77;;;8.20;99.40;;;;;;5109552;27;20031;-78
2024/02/23 02:14:17;;;;;;;6.72;1.90;;;8.10;99.20;;;;;;5099608;28;20543;-78
2024/02/23 02:16:44;;;;;;;3.55;1.27;;;8.10;98.80;;;;;;5094159;28;20078;-78
2024/02/23 02:19:10;;;;;;;11.30;1.85;;;8.10;98.80;;;;;;5091501;28;20059;-78
2024/02/23 02:21:37;;;;;;;7.50;2.13;;;8.10;98.80;;;;;;5115233;27;20043;-78
2024/02/23 02:24:03;;;;;;;14.07;2.35;;;8.00;98.60;;;;;;5088625;28;20028;-78
2024/02/23 02:26:29;;;;;;;13.10;2.38;;;7.90;98.60;;;;;;5088694;28;20384;-78
2024/02/23 02:28:55;;;;;;;10.82;1.90;;;7.90;98.80;;;;;;5089102;28;20118;-78
2024/02/23 02:31:21;;;;;;;13.75;2.13;;;7.90;99.00;;;;;;5102068;28;20119;-78
2024/02/23 02:33:46;;;;;;;7.20;1.70;;;7.90;99.00;;;;;;5100226;28;20035;-78
2024/02/23 02:36:12;;;;;;;4.47;1.92;;;8.00;99.10;;;;;;5102588;28;20394;-78
2024/02/23 02:38:38;;;;;;;8.52;1.52;;;8.10;99.00;;;;;;5105714;27;20031;-78
2024/02/23 02:41:04;;;;;;;10.80;1.95;;;8.10;99.00;;;;;;5114194;27;20383;-78
2024/02/23 02:43:31;;;;;;;7.40;2.08;;;8.10;99.10;;;;;;5093486;28;20089;-78
2024/02/23 02:45:57;;;;;;;11.45;1.75;;;8.20;99.20;;;;;;5095852;28;20039;-78
2024/02/23 02:48:23;;;;;;;11.00;1.70;;;8.30;99.20;;;;;;5113475;27;20028;-78
2024/02/23 02:50:49;;;;;;;2.97;1.17;;;8.30;99.20;;;;;;5090050;28;20043;-78
2024/02/23 02:53:15;;;;;;;5.93;1.98;;;8.30;99.10;;;;;;5102039;28;20031;-78
2024/02/23 02:55:42;;;;;;;7.57;1.90;;;8.30;99.00;;;;;;5110480;27;20038;-78
2024/02/23 02:58:11;;;;;;;12.65;3.10;;;8.30;98.90;;;;;;5091080;28;20032;-78
2024/02/23 03:00:37;;;;;;;12.95;2.63;;;8.30;98.80;;;;;;5106273;28;20370;-78
2024/02/23 03:03:02;;;;;;;11.50;2.25;;;8.20;99.00;;;;;;5093293;28;20115;-78
2024/02/23 03:05:28;;;;;;;6.20;1.75;;;8.20;99.20;;;;;;5107375;28;20039;-78
2024/02/23 03:07:54;;;;;;;20.58;2.38;;;8.20;99.40;;;;;;5090692;28;20063;-77
2024/02/23 03:10:19;;;;;;;11.90;2.58;;;8.20;99.30;;;;;;5101961;28;20034;-78
2024/02/23 03:12:45;;;;;;;10.65;2.50;;;8.10;99.00;;;;;;5104200;28;20031;-78
2024/02/23 03:15:11;;;;;;;15.20;2.85;;;8.10;99.20;;;;;;5094779;28;20542;-78
2024/02/23 03:17:36;;;;;;;8.25;1.90;;;8.10;99.50;;;;;;5094186;28;20027;-78
2024/02/23 03:20:05;;;;;;;13.52;2.50;;;8.10;99.30;;;;;;5105896;28;20423;-78
2024/02/23 03:22:31;;;;;;;10.75;2.13;;;8.10;99.20;;;;;;5104575;28;20323;-78
2024/02/23 03:24:56;;;;;;;4.63;1.88;;;8.10;99.10;;;;;;5093572;28;20028;-78
2024/02/23 03:27:29;;;;;;;7.38;1.88;;;8.10;99.00;;;;;;5107896;28;20031;-78
2024/02/23 03:29:54;;;;;;;10.73;2.05;;;8.20;99.10;;;;;;5102216;28;20400;-77
2024/02/23 03:32:20;;;;;;;10.80;2.63;;;8.10;99.10;;;;;;5101160;28;20031;-78
2024/02/23 03:34:46;;;;;;;6.97;2.03;;;8.10;98.90;;;;;;5088446;28;20023;-78
2024/02/23 03:37:11;;;;;;;11.52;2.42;;;8.10;98.80;;;;;;5096867;28;20476;-78
2024/02/23 03:39:38;;;;;;;8.52;2.05;;;8.00;98.80;;;;;;5091970;28;20028;-78
2024/02/23 03:42:04;;;;;;;6.07;1.50;;;8.00;99.00;;;;;;5086117;28;20114;-78
2024/02/23 03:44:30;;;;;;;6.45;1.50;;;8.10;99.10;;;;;;5090354;28;20035;-78
2024/02/23 03:46:56;;;;;;;6.95;1.83;;;8.10;99.10;;;;;;5101056;28;20074;-78
2024/02/23 03:49:22;;;;;;;5.47;1.83;;;8.10;99.10;;;;;;5105652;28;20031;-78
2024/02/23 03:51:48;;;;;;;7.10;1.88;;;8.10;99.10;;;;;;5107434;28;20051;-78
2024/02/23 03:54:13;;;;;;;10.73;1.65;;;8.10;99.10;;;;;;5104385;28;20033;-78
2024/02/23 03:56:42;;;;;;;10.45;2.08;;;8.20;99.00;;;;;;5096219;28;20031;-78
2024/02/23 03:59:11;;;;;;;9.23;2.20;;;8.10;99.00;;;;;;5099648;28;20114;-78
2024/02/23 04:01:39;;;;;;;5.22;1.52;;;8.10;98.80;;;;;;5108367;28;20051;-78
2024/02/23 04:04:05;;;;;;;9.88;2.28;;;8.10;98.90;;;;;;5087770;28;20487;-78
2024/02/23 04:06:31;;;;;;;5.00;1.73;;;8.10;98.80;;;;;;5109364;28;20038;-78
2024/02/23 04:08:56;;;;;;;9.27;2.38;;;8.10;98.80;;;;;;5100659;28;20099;-78
2024/02/23 04:11:22;;;;;;;7.00;1.80;;;8.10;98.70;;;;;;5107579;28;20019;-78
2024/02/23 04:13:47;;;;;;;6.45;1.77;;;8.10;98.60;;;;;;5103502;28;20035;-78
2024/02/23 04:16:13;;;;;;;9.40;2.22;;;8.10;98.60;;;;;;5099309;28;20020;-78
2024/02/23 04:18:39;;;;;;;14.20;2.60;;;8.10;98.70;;;;;;5088360;28;20032;-78
2024/02/23 04:21:04;;;;;;;7.68;1.63;;;8.10;98.60;;;;;;5107177;28;20482;-78
2024/02/23 04:23:30;;;;;;;9.65;2.00;;;8.10;98.60;;;;;;5092832;28;20490;-78
2024/02/23 04:25:59;;;;;;;11.65;1.95;;;8.10;98.70;;;;;;5088248;28;20024;-78
2024/02/23 04:28:26;;;;;;;7.95;1.92;;;8.10;98.60;;;;;;5087763;28;20028;-78
2024/02/23 04:30:52;;;;;;;11.85;2.10;;;8.10;98.60;;;;;;5100442;28;20032;-78
2024/02/23 04:33:17;;;;;;;5.30;2.03;;;8.10;98.50;;;;;;5107734;28;20080;-78
2024/02/23 04:35:43;;;;;;;11.10;2.42;;;8.10;98.50;;;;;;5098331;28;20035;-78
2024/02/23 04:38:09;;;;;;;11.18;2.28;;;8.10;98.50;;;;;;5101914;28;20036;-78
2024/02/23 04:40:35;;;;;;;3.25;1.40;;;8.10;98.40;;;;;;5104180;28;20100;-78
2024/02/23 04:43:01;;;;;;;7.65;1.73;;;8.00;98.30;;;;;;5097094;28;20617;-78
2024/02/23 04:45:26;;;;;;;8.02;2.47;;;8.00;98.20;;;;;;5106157;28;20110;-78
2024/02/23 04:47:52;;;;;;;7.13;1.83;;;8.00;98.30;;;;;;5096599;27;20076;-78
2024/02/23 04:50:17;;;;;;;7.38;1.98;;;8.00;98.30;;;;;;5091615;28;20032;-78
2024/02/23 04:52:43;;;;;;;5.75;1.52;;;8.00;98.50;;;;;;5089148;28;20189;-78
2024/02/23 04:55:09;;;;;;;9.68;1.95;;;8.00;98.30;;;;;;5091713;28;20101;-78
2024/02/23 04:57:38;;;;;;;9.55;2.45;;;7.90;98.30;;;;;;5105332;28;20035;-78
2024/02/23 05:00:04;;;;;;;9.23;1.80;;;7.90;98.50;;;;;;5099767;28;20032;-78
2024/02/23 05:02:34;;;;;;;19.27;2.45;;;7.90;98.50;;;;;;5094304;28;20039;-78
2024/02/23 05:05:04;;;;;;;9.05;1.80;;;7.90;98.30;;;;;;5108458;28;20143;-78
2024/02/23 05:07:33;;;;;;;8.30;1.75;;;7.90;98.30;;;;;;5093074;28;20105;-78
2024/02/23 05:10:03;;;;;;;11.30;1.80;;;7.90;98.20;;;;;;5090078;28;20471;-78
2024/02/23 05:12:29;;;;;;;12.13;2.92;;;7.90;98.60;;;;;;5109348;27;20035;-79
2024/02/23 05:14:55;;;;;;;7.43;1.90;;;7.90;98.20;;;;;;5091466;28;20040;-78
2024/02/23 05:17:20;;;;;;;9.73;2.42;;;7.90;98.10;;;;;;5104098;28;20034;-78
2024/02/23 05:19:46;;;;;;;9.15;1.80;;;7.90;98.20;;;;;;5104471;28;20426;-78
2024/02/23 05:22:14;;;;;;;5.22;1.23;;;7.90;98.30;;;;;;5096983;28;20395;-78
2024/02/23 05:24:40;;;;;;;8.23;1.45;;;7.90;98.10;;;;;;5098242;28;20434;-78
2024/02/23 05:27:06;;;;;;;4.70;1.27;;;7.90;98.10;;;;;;5091405;28;20058;-79
2024/02/23 05:29:31;;;;;;;5.97;1.63;;;7.90;98.10;;;;;;5090703;28;20060;-78
2024/02/23 05:31:57;;;;;;;10.75;1.58;;;8.00;98.30;;;;;;5100489;28;20028;-78
2024/02/23 05:34:26;;;;;;;7.65;1.42;;;7.90;98.20;;;;;;5088812;28;20035;-78
2024/02/23 05:36:51;;;;;;;13.52;1.77;;;7.90;98.10;;;;;;5102874;28;20031;-78
2024/02/23 05:39:17;;;;;;;4.97;1.30;;;7.90;98.00;;;;;;5103944;28;20035;-79
2024/02/23 05:41:43;;;;;;;5.57;1.25;;;8.00;98.10;;;;;;5093555;28;20035;-78
2024/02/23 05:44:09;;;;;;;7.10;3.08;;;8.00;98.10;;;;;;5097946;28;20043;-79
2024/02/23 05:46:35;;;;;;;6.82;1.33;;;8.00;98.10;;;;;;5104721;27;20053;-79
2024/02/23 05:49:03;;;;;;;3.80;1.60;;;8.00;98.10;;;;;;5093676;28;20044;-79
2024/02/23 05:51:30;;;;;;;7.18;2.03;;;8.00;98.10;;;;;;5096008;28;20043;-78
2024/02/23 05:53:56;;;;;;;9.75;2.13;;;8.00;98.10;;;;;;5089674;28;20061;-79
2024/02/23 05:56:24;;;;;;;4.53;2.20;;;8.00;97.90;;;;;;5088945;28;20074;-78
2024/02/23 05:58:51;;;;;;;9.77;2.00;;;8.00;98.00;;;;;;5091446;28;20131;-78
2024/02/23 06:01:16;;;;;;;6.15;1.88;;;8.00;97.90;;;;;;5097792;28;20035;-78
2024/02/23 06:03:42;;;;;;;7.85;2.05;;;8.00;98.00;;;;;;5087958;28;20090;-78
2024/02/23 06:06:08;;;;;;;5.15;1.60;;;8.00;98.00;;;;;;5093890;28;20073;-78
2024/02/23 06:08:34;;;;;;;9.52;2.03;;;8.00;98.00;;;;;;5091008;28;20063;-79
2024/02/23 06:11:00;;;;;;;3.25;1.80;;;7.90;98.00;;;;;;5104783;27;20481;-79
2024/02/23 06:13:29;;;;;;;5.50;1.75;;;7.90;98.00;;;;;;5107286;28;20035;-78
2024/02/23 06:15:54;;;;;;;9.95;1.98;;;7.90;98.20;;;;;;5088105;28;20034;-79
2024/02/23 06:18:20;;;;;;;5.25;1.92;;;7.90;98.30;;;;;;5092409;28;20093;-78
2024/02/23 06:20:45;;;;;;;6.15;1.88;;;7.80;98.30;;;;;;5089095;28;20035;-79
2024/02/23 06:23:11;;;;;;;15.18;2.53;;;7.80;98.40;;;;;;5097673;28;20483;-79
2024/02/23 06:25:40;;;;;;;7.03;1.90;;;7.70;98.40;;;;;;5107731;28;20023;-80
2024/02/23 06:28:06;;;;;;;8.32;2.47;;;7.80;98.50;;;;;;5093731;28;20123;-81
2024/02/23 06:30:32;;;;;;;10.10;2.47;;;7.70;98.50;;;;;;5094234;28;20475;-83
2024/02/23 06:32:58;;;;;;;12.32;2.97;;;7.70;98.60;;;;;;5103630;28;20039;-79
2024/02/23 06:35:23;;;;;;;13.13;3.85;;;7.70;98.60;;;;;;5101375;28;20042;-81
2024/02/23 06:37:49;;;;;;;8.07;3.08;;;7.80;98.70;;;;;;5105122;28;20032;-80
2024/02/23 06:40:15;;;;;;;7.60;2.63;;;7.70;98.70;;;;;;5089811;28;20130;-80
2024/02/23 06:42:40;;;;;;;13.82;3.15;;;7.70;98.80;;;;;;5087495;28;20749;-79
2024/02/23 06:45:07;;;;;;;9.00;3.08;;;7.70;98.80;;;;;;5091023;28;20375;-80
2024/02/23 06:47:33;;;;;;;8.57;3.28;;;7.70;98.80;;;;;;5115954;27;20122;-80
2024/02/23 06:49:59;;;;;;;10.40;3.13;;;7.70;98.80;;;;;;5100504;28;20111;-82
2024/02/23 06:52:26;;;;;;;9.95;3.53;;;7.70;98.90;;;;;;5101756;28;20061;-78
2024/02/23 06:54:52;;;;;;;10.85;3.05;;;7.70;98.80;;;;;;5099585;28;20086;-78
2024/02/23 06:57:20;;;;;;;10.45;3.92;;;7.70;98.90;;;;;;5089972;28;20492;-78
2024/02/23 06:59:46;;;;;;;5.85;3.05;;;7.70;98.90;;;;;;5104953;28;20031;-81
2024/02/23 07:02:11;;;;;;;17.75;4.03;;;7.70;98.90;;;;;;5097343;28;20399;-81
2024/02/23 07:04:37;;;;;;;10.55;3.83;;;7.70;99.00;;;;;;5095491;28;20353;-79
2024/02/23 07:07:07;;;;;;;10.18;3.72;;;7.70;99.00;;;;;;5104157;28;20067;-78
2024/02/23 07:09:33;;;;;;;10.20;3.45;;;7.70;99.10;;;;;;5106155;28;20024;-79
2024/02/23 07:11:59;;;;;;;7.70;3.75;;;7.70;99.10;;;;;;5104218;27;20039;-79
2024/02/23 07:14:24;;;;;;;9.25;3.35;;;7.70;99.10;;;;;;5088434;28;20031;-79
2024/02/23 07:16:52;;;;;;;11.02;4.47;;;7.70;99.00;;;;;;5101544;28;20048;-79
2024/02/23 07:19:19;;;;;;;8.05;4.53;;;7.70;99.10;;;;;;5106155;28;20062;-79
2024/02/23 07:21:48;;;;;;;13.40;5.00;;;7.60;99.10;;;;;;5092083;28;20495;-79
2024/02/23 07:24:14;;;;;;;11.63;4.40;;;7.50;99.00;;;;;;5096322;28;20020;-80
2024/02/23 07:26:39;;;;;;;16.05;3.55;;;7.60;99.20;;;;;;5105742;28;20127;-80
2024/02/23 07:29:07;;;;;;;7.95;3.70;;;7.60;99.30;;;;;;5107543;28;20542;-80
2024/02/23 07:31:33;;;;;;;17.60;4.88;;;7.60;99.40;;;;;;5102656;28;20034;-80
2024/02/23 07:33:59;;;;;;;13.10;4.10;;;7.60;99.20;;;;;;5095802;28;20527;-80
2024/02/23 07:36:24;;;;;;;16.02;5.43;;;7.60;99.20;;;;;;5105659;28;20032;-79
2024/02/23 07:38:50;;;;;;;13.07;4.25;;;7.70;99.60;;;;;;5098953;28;20124;-80
2024/02/23 07:41:18;;;;;;;13.23;4.57;;;7.60;99.10;;;;;;5099884;28;20062;-79
2024/02/23 07:43:44;;;;;;;11.90;5.20;;;7.60;99.10;;;;;;5107723;28;20106;-79
2024/02/23 07:46:10;;;;;;;10.25;4.05;;;7.70;99.20;;;;;;5109415;28;20032;-79
2024/02/23 07:48:38;;;;;;;7.07;3.28;;;7.70;99.30;;;;;;5116734;28;20470;-80
2024/02/23 07:51:05;;;;;;;7.03;3.63;;;7.70;99.30;;;;;;5094788;28;20081;-80
2024/02/23 07:53:31;;;;;;;11.75;4.00;;;7.70;99.30;;;;;;5099353;28;20038;-79
2024/02/23 07:55:59;;;;;;;15.40;4.22;;;7.70;99.20;;;;;;5102405;28;20034;-81
2024/02/23 07:58:26;;;;;;;7.80;3.50;;;7.80;99.20;;;;;;5097415;28;20470;-79
2024/02/23 08:00:54;;;;;;;10.35;3.30;;;7.80;99.30;;;;;;5086127;28;20024;-79
2024/02/23 08:03:20;;;;;;;15.55;4.45;;;7.80;99.20;;;;;;5101315;28;20082;-81
2024/02/23 08:05:46;;;;;;;8.80;3.17;;;7.80;99.20;;;;;;5102273;28;20062;-82
2024/02/23 08:08:12;;;;;;;9.73;3.55;;;7.80;99.20;;;;;;5096417;28;20036;-82
2024/02/23 08:10:38;;;;;;;6.63;3.40;;;7.80;99.40;;;;;;5095049;27;20028;-80
2024/02/23 08:13:04;;;;;;;3.03;2.42;;;7.90;99.30;;;;;;5123315;27;20084;-82
2024/02/23 08:15:30;;;;;;;9.30;3.20;;;7.90;99.30;;;;;;5095480;28;20558;-83
2024/02/23 08:17:55;;;;;;;13.35;3.47;;;7.90;99.20;;;;;;5099269;28;20039;-80
2024/02/23 08:20:21;;;;;;;7.55;3.60;;;7.90;99.10;;;;;;5092453;28;20027;-79
2024/02/23 08:22:47;;;;;;;8.80;3.35;;;7.90;99.10;;;;;;5091056;28;20131;-83
2024/02/23 08:25:12;;;;;;;7.00;2.53;;;7.90;99.20;;;;;;5092203;28;20418;-80
2024/02/23 08:27:38;;;;;;;11.05;3.22;;;8.00;99.20;;;;;;5103223;28;20034;-80
2024/02/23 08:30:04;;;;;;;5.72;3.50;;;8.00;99.20;;;;;;5090464;28;20036;-80
2024/02/23 08:32:30;;;;;;;8.93;2.88;;;8.00;99.10;;;;;;5101006;28;20444;-80
2024/02/23 08:34:59;;;;;;;13.88;3.45;;;8.00;99.00;;;;;;5094827;28;20024;-80
2024/02/23 08:37:26;;;;;;;4.85;2.58;;;8.10;99.10;;;;;;5090980;28;20059;-79
2024/02/23 08:39:52;;;;;;;4.38;2.40;;;8.00;99.20;;;;;;5094435;28;20046;-79
2024/02/23 08:42:17;;;;;;;6.90;2.92;;;8.00;99.20;;;;;;5106949;28;20383;-79
2024/02/23 08:44:43;;;;;;;7.60;2.67;;;8.10;99.20;;;;;;5097162;28;20039;-79
2024/02/23 08:47:08;;;;;;;7.63;2.10;;;8.10;99.10;;;;;;5093380;27;20523;-80
2024/02/23 08:49:34;;;;;;;8.10;2.03;;;8.10;99.20;;;;;;5107562;28;20135;-80
2024/02/23 08:52:00;;;;;;;5.20;2.15;;;8.10;99.30;;;;;;5101246;28;20506;-79
2024/02/23 08:54:26;;;;;;;5.78;2.10;;;8.10;99.10;;;;;;5097957;28;20063;-80
2024/02/23 08:56:51;;;;;;;2.78;1.63;;;8.20;99.20;;;;;;5097163;28;20032;-79
2024/02/23 08:59:17;;;;;;;5.80;1.77;;;8.20;99.20;;;;;;5092560;28;20120;-79
2024/02/23 09:01:44;;;;;;;5.45;1.67;;;8.20;99.20;;;;;;5103883;28;20035;-79
2024/02/23 09:04:10;;;;;;;3.28;1.92;;;8.30;99.10;;;;;;5094055;28;20042;-80
2024/02/23 09:06:36;;;;;;;4.28;1.98;;;8.30;99.00;;;;;;5088420;28;20131;-79
2024/02/23 09:09:01;;;;;;;4.82;1.45;;;8.30;99.10;;;;;;5090746;28;20046;-80
2024/02/23 09:11:27;;;;;;;8.15;1.75;;;8.30;99.10;;;;;;5098482;27;20475;-79
2024/02/23 09:13:52;;;;;;;4.82;1.63;;;8.40;98.90;;;;;;5100333;28;20059;-78
2024/02/23 09:16:18;;;;;;;5.78;1.52;;;8.40;98.80;;;;;;5090797;28;20043;-79
2024/02/23 09:18:44;;;;;;;1.83;0.98;;;8.40;98.80;;;;;;5098166;28;20476;-79
2024/02/23 09:21:10;;;;;;;1.25;0.90;;;8.50;98.80;;;;;;5097364;28;20031;-79
2024/02/23 09:23:36;;;;;;;14.95;2.33;;;8.50;98.80;;;;;;5099288;28;20101;-79
2024/02/23 09:26:01;;;;;;;4.57;1.10;;;8.50;98.80;;;;;;5089940;28;20650;-80
2024/02/23 09:28:29;;;;;;;5.40;1.85;;;8.60;98.70;;;;;;5094718;28;20044;-80
2024/02/23 09:30:55;;;;;;;4.93;2.00;;;8.60;98.70;;;;;;5091777;28;20020;-79
2024/02/23 09:33:20;;;;;;;6.90;2.00;;;8.60;98.40;;;;;;5102623;28;20107;-79
2024/02/23 09:35:46;;;;;;;4.65;1.42;;;8.60;98.40;;;;;;5105119;28;20052;-79
2024/02/23 09:38:12;;;;;;;4.80;1.50;;;8.60;98.50;;;;;;5091474;28;20094;-79
2024/02/23 09:40:39;;;;;;;4.68;1.38;;;8.60;98.70;;;;;;5090568;28;20032;-79
2024/02/23 09:43:08;;;;;;;3.30;1.63;;;8.60;98.70;;;;;;5106278;28;20043;-79
2024/02/23 09:45:34;;;;;;;7.10;1.60;;;8.70;98.60;;;;;;5095088;28;20028;-81
2024/02/23 09:48:03;;;;;;;1.48;1.08;;;8.70;98.60;;;;;;5107961;27;20466;-79
2024/02/23 09:50:30;;;;;;;5.45;1.90;;;8.70;98.60;;;;;;5103466;28;20035;-78
2024/02/23 09:52:58;;;;;;;2.30;0.95;;;8.70;98.60;;;;;;5100470;28;20094;-79
2024/02/23 09:55:24;;;;;;;1.92;1.10;;;8.80;98.70;;;;;;5091429;28;20032;-81
2024/02/23 09:57:56;;;;;;;6.00;2.03;;;8.80;98.50;;;;;;5091204;28;20032;-79
2024/02/23 10:00:23;;;;;;;1.23;1.10;;;8.90;98.40;;;;;;5090987;28;20027;-79
2024/02/23 10:02:50;;;;;;;0.60;0.60;;;8.90;98.40;;;;;;5093337;28;20096;-80
2024/02/23 10:05:17;;;;;;;3.67;1.20;;;8.90;98.40;;;;;;5091357;28;20031;-80
2024/02/23 10:07:44;;;;;;;3.30;1.23;;;8.90;98.40;;;;;;5100371;28;20040;-80
2024/02/23 10:10:10;;;;;;;4.22;1.10;;;8.90;98.30;;;;;;5090965;28;20078;-80
2024/02/23 10:12:39;;;;;;;7.03;1.55;;;8.90;98.20;;;;;;5091708;27;20061;-80
2024/02/23 10:15:06;;;;;;;5.88;1.40;;;8.90;98.20;;;;;;5096570;28;20028;-80
2024/02/23 10:17:32;;;;;;;6.32;1.92;;;8.90;98.10;;;;;;5101622;28;20039;-81
2024/02/23 10:20:04;;;;;;;4.30;1.42;;;8.90;98.00;;;;;;5104144;28;20065;-80
2024/02/23 10:22:30;;;;;;;7.30;1.70;;;8.90;98.00;;;;;;5106318;28;20039;-80
2024/02/23 10:24:57;;;;;;;5.47;1.23;;;8.90;98.20;;;;;;5104543;28;20133;-76
2024/02/23 10:27:26;;;;;;;7.65;1.70;;;8.90;98.00;;;;;;5089425;28;20532;-81
2024/02/23 10:29:52;;;;;;;7.30;1.67;;;8.90;98.00;;;;;;5086749;28;20044;-81
2024/02/23 10:32:19;;;;;;;3.63;1.10;;;8.90;98.10;;;;;;5100840;28;20031;-81
2024/02/23 10:34:48;;;;;;;6.30;1.77;;;9.00;98.10;;;;;;5099435;28;20027;-82
2024/02/23 10:37:14;;;;;;;3.53;1.38;;;8.90;97.90;;;;;;5097754;28;20360;-84
2024/02/23 10:39:41;;;;;;;3.80;1.70;;;9.00;98.00;;;;;;5092704;28;20046;-80
2024/02/23 10:42:09;;;;;;;4.13;1.50;;;9.00;98.10;;;;;;5096200;28;20047;-81
2024/02/23 10:44:36;;;;;;;5.78;1.80;;;9.10;97.80;;;;;;5095954;28;20475;-77
2024/02/23 10:47:04;;;;;;;2.88;1.40;;;9.10;97.70;;;;;;5104140;27;20043;-83
2024/02/23 10:49:30;;;;;;;5.28;1.38;;;9.10;97.80;;;;;;5095638;28;20027;-81
2024/02/23 10:51:56;;;;;;;6.00;1.63;;;9.10;97.80;;;;;;5097245;28;20491;-83
2024/02/23 10:54:22;;;;;;;4.38;1.10;;;9.10;97.70;;;;;;5088322;28;20028;-81
2024/02/23 10:56:50;;;;;;;4.15;1.30;;;9.10;97.80;;;;;;5088265;28;20031;-83
2024/02/23 10:59:18;;;;;;;4.68;1.30;;;9.20;97.80;;;;;;5100219;28;20392;-81
2024/02/23 11:01:51;;;;;;;6.25;1.30;;;9.20;97.90;;;;;;5089137;28;20480;-81
2024/02/23 11:04:18;;;;;;;6.95;1.42;;;9.20;97.90;;;;;;5090246;28;20043;-82
2024/02/23 11:06:51;;;;;;;0.70;0.70;;;9.30;97.80;;;;;;5095116;28;20051;-81
2024/02/23 11:09:21;;;;;;;3.40;1.25;;;9.30;98.00;;;;;;5097329;28;20119;-80
2024/02/23 11:11:57;;;;;;;2.25;0.95;;;9.30;97.90;;;;;;5106514;27;20055;-81
2024/02/23 11:14:32;;;;;;;4.80;1.35;;;9.30;97.80;;;;;;5091124;28;20074;-80
2024/02/23 11:16:58;;;;;;;4.45;1.35;;;9.30;97.70;;;;;;5089816;28;20040;-81
2024/02/23 11:19:39;;;;;;;4.07;1.60;;;9.30;97.70;;;;;;5089883;28;20032;-81
2024/02/23 11:22:08;;;;;;;3.15;1.75;;;9.30;97.70;;;;;;5095646;28;20080;-79
2024/02/23 11:24:34;;;;;;;0.82;0.82;;;9.30;97.80;;;;;;5095050;28;20057;-81
2024/02/23 11:27:08;;;;;;;4.20;1.20;;;9.40;98.10;;;;;;5097953;28;20028;-80
2024/02/23 11:29:34;;;;;;;3.33;1.02;;;9.40;98.00;;;;;;5089998;28;20395;-84
2024/02/23 11:32:03;;;;;;;44.88;15.10;;;9.40;98.30;;;;;;5087587;28;20039;-81
2024/02/23 11:34:30;;;;;;;26.23;10.30;;;9.50;98.00;;;;;;5090532;28;20027;-84
2024/02/23 11:36:56;;;;;;;17.25;8.07;;;9.50;98.00;;;;;;5090525;28;20031;-83
2024/02/23 11:39:22;;;;;;;5.30;2.33;;;9.40;97.90;;;;;;5096702;28;20028;-81
2024/02/23 11:41:49;;;;;;;4.95;1.50;;;9.50;97.90;;;;;;5091181;28;20426;-81
2024/02/23 11:44:17;;;;;;;4.65;1.42;;;9.50;98.00;;;;;;5093206;28;20020;-79
2024/02/23 11:46:43;;;;;;;6.75;1.80;;;9.40;97.80;;;;;;5113390;27;20751;-82
2024/02/23 11:49:09;;;;;;;7.57;1.10;;;9.40;98.10;;;;;;5090832;28;20032;-86
2024/02/23 11:51:35;;;;;;;6.93;1.77;;;9.40;98.40;;;;;;5093226;28;20403;-82
2024/02/23 11:54:01;;;;;;;9.23;1.02;;;9.40;98.30;;;;;;5090920;28;20032;-82
2024/02/23 11:56:28;;;;;;;3.70;0.90;;;9.40;98.40;;;;;;5098520;28;20035;-81
2024/02/23 11:58:55;;;;;;;5.70;1.20;;;9.40;98.50;;;;;;5103093;28;20433;-81
2024/02/23 12:01:21;;;;;;;2.10;1.08;;;9.50;98.50;;;;;;5096199;28;20038;-81
2024/02/23 12:03:49;;;;;;;6.55;1.55;;;9.50;98.50;;;;;;5091182;28;20123;-82
2024/02/23 12:06:18;;;;;;;6.05;1.60;;;9.50;98.40;;;;;;5096267;28;20119;-83
2024/02/23 12:08:45;;;;;;;3.10;1.17;;;9.60;98.40;;;;;;5091176;28;20415;-84
2024/02/23 12:11:11;;;;;;;3.00;0.80;;;9.60;98.40;;;;;;5096454;27;20393;-85
2024/02/23 12:13:37;;;;;;;1.75;1.13;;;9.60;98.20;;;;;;5090736;28;20032;-77
2024/02/23 12:16:04;;;;;;;1.73;0.80;;;9.60;98.20;;;;;;5111726;28;20028;-80
2024/02/23 12:18:30;;;;;;;1.30;0.95;;;9.60;98.10;;;;;;5097080;28;20039;-80
2024/02/23 12:21:04;;;;;;;3.13;1.23;;;9.60;98.10;;;;;;5091979;28;20024;-81
2024/02/23 12:23:43;;;;;;;4.95;1.40;;;9.60;98.10;;;;;;5099625;28;20487;-82
2024/02/23 12:26:13;;;;;;;1.85;0.90;;;9.60;98.10;;;;;;5095961;28;20088;-82
2024/02/23 12:28:39;;;;;;;2.95;0.85;;;9.60;98.30;;;;;;5101838;28;20115;-82
2024/02/23 12:31:06;;;;;;;4.05;1.65;;;9.60;98.20;;;;;;5094570;28;20035;-84
2024/02/23 12:33:36;;;;;;;3.05;1.45;;;9.60;98.00;;;;;;5092324;28;20055;-81
2024/02/23 12:36:04;;;;;;;4.15;1.33;;;9.60;98.00;;;;;;5099851;28;20058;-81
2024/02/23 12:38:29;;;;;;;2.40;1.35;;;9.70;98.00;;;;;;5103677;28;20035;-82
2024/02/23 12:40:56;;;;;;;1.73;0.80;;;9.60;97.80;;;;;;5100426;28;20035;-80
2024/02/23 12:43:27;;;;;;;3.75;1.42;;;9.60;98.10;;;;;;5104468;28;20036;-84
2024/02/23 12:45:54;;;;;;;6.43;2.67;;;9.60;98.10;;;;;;5096300;28;20055;-83
2024/02/23 12:48:21;;;;;;;5.05;1.38;;;9.60;98.00;;;;;;5103365;28;20024;-83
2024/02/23 12:50:47;;;;;;;3.20;2.25;;;9.60;98.00;;;;;;5087880;28;20032;-82